sensor_id;sensor_type;location;lat;lon;timestamp;temperature;humidity
12025;DHT22;6073;53.230;10.444;2023-02-01T00:00:20;5.20;99.90
12025;DHT22;6073;53.230;10.444;2023-02-01T00:02:45;5.10;99.90
12025;DHT22;6073;53.230;10.444;2023-02-01T00:05:11;5.20;99.90
12025;DHT22;6073;53.230;10.444;2023-02-01T00:07:37;5.30;99.90
12025;DHT22;6073;53.230;10.444;2023-02-01T00:10:04;5.30;99.90
12025;DHT22;6073;53.230;10.444;2023-02-01T00:12:30;5.20;99.90
12025;DHT22;6073;53.230;10.444;2023-02-01T00:14:56;5.20;99.90
12025;DHT22;6073;53.230;10.444;2023-02-01T00:17:22;5.20;99.90
12025;DHT22;6073;53.230;10.444;2023-02-01T00:19:47;5.30;99.90
12025;DHT22;6073;53.230;10.444;2023-02-01T00:22:13;5.30;99.90
12025;DHT22;6073;53.230;10.444;2023-02-01T00:24:38;5.30;99.90
12025;DHT22;6073;53.230;10.444;2023-02-01T00:27:07;5.30;99.90
12025;DHT22;6073;53.230;10.444;2023-02-01T00:29:33;5.20;99.90
12025;DHT22;6073;53.230;10.444;2023-02-01T00:31:58;5.20;99.90
12025;DHT22;6073;53.230;10.444;2023-02-01T00:34:24;5.20;99.90
12025;DHT22;6073;53.230;10.444;2023-02-01T00:36:49;5.20;99.90
12025;DHT22;6073;53.230;10.444;2023-02-01T00:39:16;5.20;99.90
12025;DHT22;6073;53.230;10.444;2023-02-01T00:41:41;5.10;99.90
12025;DHT22;6073;53.230;10.444;2023-02-01T00:44:07;5.10;99.90
12025;DHT22;6073;53.230;10.444;2023-02-01T00:46:33;5.10;99.90
12025;DHT22;6073;53.230;10.444;2023-02-01T00:48:58;5.10;99.90
12025;DHT22;6073;53.230;10.444;2023-02-01T00:51:26;5.10;99.90
12025;DHT22;6073;53.230;10.444;2023-02-01T00:53:52;5.20;99.90
12025;DHT22;6073;53.230;10.444;2023-02-01T00:56:18;5.20;99.90
12025;DHT22;6073;53.230;10.444;2023-02-01T00:58:44;5.20;99.90
12025;DHT22;6073;53.230;10.444;2023-02-01T01:01:21;5.30;99.90
12025;DHT22;6073;53.230;10.444;2023-02-01T01:03:51;5.30;99.90
12025;DHT22;6073;53.230;10.444;2023-02-01T01:06:20;5.20;99.90
12025;DHT22;6073;53.230;10.444;2023-02-01T01:08:46;5.30;99.90
12025;DHT22;6073;53.230;10.444;2023-02-01T01:11:18;5.40;99.90
12025;DHT22;6073;53.230;10.444;2023-02-01T01:13:46;5.40;99.90
12025;DHT22;6073;53.230;10.444;2023-02-01T01:16:12;5.30;99.90
12025;DHT22;6073;53.230;10.444;2023-02-01T01:18:38;5.40;99.90
12025;DHT22;6073;53.230;10.444;2023-02-01T01:21:08;5.50;99.90
12025;DHT22;6073;53.230;10.444;2023-02-01T01:23:35;5.50;99.90
12025;DHT22;6073;53.230;10.444;2023-02-01T01:26:08;5.50;99.90
12025;DHT22;6073;53.230;10.444;2023-02-01T01:28:35;5.50;99.90
12025;DHT22;6073;53.230;10.444;2023-02-01T01:31:01;5.50;99.90
12025;DHT22;6073;53.230;10.444;2023-02-01T01:33:26;5.50;99.90
12025;DHT22;6073;53.230;10.444;2023-02-01T01:35:52;5.50;99.90
12025;DHT22;6073;53.230;10.444;2023-02-01T01:38:17;5.60;99.90
12025;DHT22;6073;53.230;10.444;2023-02-01T01:40:47;5.50;99.90
12025;DHT22;6073;53.230;10.444;2023-02-01T01:43:17;5.60;99.90
12025;DHT22;6073;53.230;10.444;2023-02-01T01:45:43;5.60;99.90
12025;DHT22;6073;53.230;10.444;2023-02-01T01:48:31;5.60;99.90
12025;DHT22;6073;53.230;10.444;2023-02-01T01:51:01;5.60;99.90
12025;DHT22;6073;53.230;10.444;2023-02-01T01:53:42;5.60;99.90
12025;DHT22;6073;53.230;10.444;2023-02-01T01:56:09;5.60;99.90
12025;DHT22;6073;53.230;10.444;2023-02-01T01:58:35;5.60;99.90
12025;DHT22;6073;53.230;10.444;2023-02-01T02:01:01;5.70;99.90
12025;DHT22;6073;53.230;10.444;2023-02-01T02:03:37;5.60;99.90
12025;DHT22;6073;53.230;10.444;2023-02-01T02:06:10;5.60;99.90
12025;DHT22;6073;53.230;10.444;2023-02-01T02:08:39;5.60;99.90
12025;DHT22;6073;53.230;10.444;2023-02-01T02:11:04;5.50;99.90
12025;DHT22;6073;53.230;10.444;2023-02-01T02:13:50;5.50;99.90
12025;DHT22;6073;53.230;10.444;2023-02-01T02:19:42;5.50;99.90
12025;DHT22;6073;53.230;10.444;2023-02-01T02:22:29;5.50;99.90
12025;DHT22;6073;53.230;10.444;2023-02-01T02:28:25;5.60;99.90
12025;DHT22;6073;53.230;10.444;2023-02-01T02:45:23;5.60;99.90
12025;DHT22;6073;53.230;10.444;2023-02-01T02:48:19;5.60;99.90
12025;DHT22;6073;53.230;10.444;2023-02-01T02:51:01;5.60;99.90
12025;DHT22;6073;53.230;10.444;2023-02-01T02:56:37;5.60;99.90
12025;DHT22;6073;53.230;10.444;2023-02-01T02:59:24;5.60;99.90
12025;DHT22;6073;53.230;10.444;2023-02-01T03:02:08;5.60;99.90
12025;DHT22;6073;53.230;10.444;2023-02-01T03:04:54;5.50;99.90
12025;DHT22;6073;53.230;10.444;2023-02-01T03:10:54;5.40;99.90
12025;DHT22;6073;53.230;10.444;2023-02-01T03:13:36;5.40;99.90
12025;DHT22;6073;53.230;10.444;2023-02-01T03:18:51;5.30;99.90
12025;DHT22;6073;53.230;10.444;2023-02-01T03:21:24;5.30;99.90
12025;DHT22;6073;53.230;10.444;2023-02-01T03:23:51;5.20;99.90
12025;DHT22;6073;53.230;10.444;2023-02-01T03:26:19;5.20;99.90
12025;DHT22;6073;53.230;10.444;2023-02-01T03:28:59;5.20;99.90
12025;DHT22;6073;53.230;10.444;2023-02-01T03:31:28;5.30;99.90
12025;DHT22;6073;53.230;10.444;2023-02-01T03:33:54;5.30;99.90
12025;DHT22;6073;53.230;10.444;2023-02-01T03:36:26;5.40;99.90
12025;DHT22;6073;53.230;10.444;2023-02-01T03:39:21;5.50;99.90
12025;DHT22;6073;53.230;10.444;2023-02-01T03:41:53;5.40;99.90
12025;DHT22;6073;53.230;10.444;2023-02-01T03:44:26;5.40;99.90
12025;DHT22;6073;53.230;10.444;2023-02-01T03:47:02;5.30;99.90
12025;DHT22;6073;53.230;10.444;2023-02-01T03:49:41;5.10;99.90
12025;DHT22;6073;53.230;10.444;2023-02-01T03:52:13;5.00;99.90
12025;DHT22;6073;53.230;10.444;2023-02-01T03:54:39;4.90;99.90
12025;DHT22;6073;53.230;10.444;2023-02-01T03:57:09;4.90;99.90
12025;DHT22;6073;53.230;10.444;2023-02-01T03:59:44;4.90;99.90
12025;DHT22;6073;53.230;10.444;2023-02-01T04:02:11;4.90;99.90
12025;DHT22;6073;53.230;10.444;2023-02-01T04:04:36;4.80;99.90
12025;DHT22;6073;53.230;10.444;2023-02-01T04:07:03;4.70;99.90
12025;DHT22;6073;53.230;10.444;2023-02-01T04:09:28;4.60;99.90
12025;DHT22;6073;53.230;10.444;2023-02-01T04:11:54;4.50;99.90
12025;DHT22;6073;53.230;10.444;2023-02-01T04:14:19;4.30;99.90
12025;DHT22;6073;53.230;10.444;2023-02-01T04:16:45;4.10;99.90
12025;DHT22;6073;53.230;10.444;2023-02-01T04:19:11;4.10;99.90
12025;DHT22;6073;53.230;10.444;2023-02-01T04:21:36;4.00;99.90
12025;DHT22;6073;53.230;10.444;2023-02-01T04:24:02;3.90;99.90
12025;DHT22;6073;53.230;10.444;2023-02-01T04:26:28;3.90;99.90
12025;DHT22;6073;53.230;10.444;2023-02-01T04:28:53;3.90;99.90
12025;DHT22;6073;53.230;10.444;2023-02-01T04:31:19;4.00;99.90
12025;DHT22;6073;53.230;10.444;2023-02-01T04:33:51;4.00;99.90
12025;DHT22;6073;53.230;10.444;2023-02-01T04:36:17;4.00;99.90
12025;DHT22;6073;53.230;10.444;2023-02-01T04:38:44;4.00;99.90
12025;DHT22;6073;53.230;10.444;2023-02-01T04:41:10;4.00;99.90
12025;DHT22;6073;53.230;10.444;2023-02-01T04:43:36;4.00;99.90
12025;DHT22;6073;53.230;10.444;2023-02-01T04:46:01;4.00;99.90
12025;DHT22;6073;53.230;10.444;2023-02-01T04:48:27;4.00;99.90
12025;DHT22;6073;53.230;10.444;2023-02-01T04:50:53;4.00;99.90
12025;DHT22;6073;53.230;10.444;2023-02-01T04:53:18;3.90;99.90
12025;DHT22;6073;53.230;10.444;2023-02-01T04:55:44;4.00;99.90
12025;DHT22;6073;53.230;10.444;2023-02-01T04:58:10;4.00;99.90
12025;DHT22;6073;53.230;10.444;2023-02-01T05:00:36;4.00;99.90
12025;DHT22;6073;53.230;10.444;2023-02-01T05:03:02;4.00;99.90
12025;DHT22;6073;53.230;10.444;2023-02-01T05:05:28;4.10;99.90
12025;DHT22;6073;53.230;10.444;2023-02-01T05:07:54;4.00;99.90
12025;DHT22;6073;53.230;10.444;2023-02-01T05:10:21;4.00;99.90
12025;DHT22;6073;53.230;10.444;2023-02-01T05:12:46;4.00;99.90
12025;DHT22;6073;53.230;10.444;2023-02-01T05:15:30;3.90;99.90
12025;DHT22;6073;53.230;10.444;2023-02-01T05:17:56;4.00;99.90
12025;DHT22;6073;53.230;10.444;2023-02-01T05:20:23;3.90;99.90
12025;DHT22;6073;53.230;10.444;2023-02-01T05:22:48;3.90;99.90
12025;DHT22;6073;53.230;10.444;2023-02-01T05:25:14;3.90;99.90
12025;DHT22;6073;53.230;10.444;2023-02-01T05:27:40;3.80;99.90
12025;DHT22;6073;53.230;10.444;2023-02-01T05:30:07;3.80;99.90
12025;DHT22;6073;53.230;10.444;2023-02-01T05:32:33;3.70;99.90
12025;DHT22;6073;53.230;10.444;2023-02-01T05:34:59;3.70;99.90
12025;DHT22;6073;53.230;10.444;2023-02-01T05:37:24;3.60;99.90
12025;DHT22;6073;53.230;10.444;2023-02-01T05:39:50;3.60;99.90
12025;DHT22;6073;53.230;10.444;2023-02-01T05:42:16;3.50;99.90
12025;DHT22;6073;53.230;10.444;2023-02-01T05:44:41;3.50;99.90
12025;DHT22;6073;53.230;10.444;2023-02-01T05:47:34;3.50;99.90
12025;DHT22;6073;53.230;10.444;2023-02-01T05:49:59;3.40;99.90
12025;DHT22;6073;53.230;10.444;2023-02-01T05:52:25;3.30;99.90
12025;DHT22;6073;53.230;10.444;2023-02-01T05:54:50;3.20;99.90
12025;DHT22;6073;53.230;10.444;2023-02-01T05:57:17;3.10;99.90
12025;DHT22;6073;53.230;10.444;2023-02-01T05:59:43;3.00;99.90
12025;DHT22;6073;53.230;10.444;2023-02-01T06:02:11;3.00;99.90
12025;DHT22;6073;53.230;10.444;2023-02-01T06:04:37;2.90;99.90
12025;DHT22;6073;53.230;10.444;2023-02-01T06:07:03;2.90;99.90
12025;DHT22;6073;53.230;10.444;2023-02-01T06:09:29;2.90;99.90
12025;DHT22;6073;53.230;10.444;2023-02-01T06:11:54;2.90;99.90
12025;DHT22;6073;53.230;10.444;2023-02-01T06:14:20;2.90;99.90
12025;DHT22;6073;53.230;10.444;2023-02-01T06:16:46;3.00;99.90
12025;DHT22;6073;53.230;10.444;2023-02-01T06:19:12;3.00;99.90
12025;DHT22;6073;53.230;10.444;2023-02-01T06:21:38;2.90;99.90
12025;DHT22;6073;53.230;10.444;2023-02-01T06:24:04;2.90;99.90
12025;DHT22;6073;53.230;10.444;2023-02-01T06:26:29;2.80;99.90
12025;DHT22;6073;53.230;10.444;2023-02-01T06:28:55;2.60;99.90
12025;DHT22;6073;53.230;10.444;2023-02-01T06:31:22;2.60;99.90
12025;DHT22;6073;53.230;10.444;2023-02-01T06:33:48;2.50;99.90
12025;DHT22;6073;53.230;10.444;2023-02-01T06:36:14;2.40;99.90
12025;DHT22;6073;53.230;10.444;2023-02-01T06:38:41;2.40;99.90
12025;DHT22;6073;53.230;10.444;2023-02-01T06:41:07;2.40;99.90
12025;DHT22;6073;53.230;10.444;2023-02-01T06:43:32;2.30;99.90
12025;DHT22;6073;53.230;10.444;2023-02-01T06:46:03;2.30;99.90
12025;DHT22;6073;53.230;10.444;2023-02-01T06:48:30;2.30;99.90
12025;DHT22;6073;53.230;10.444;2023-02-01T06:50:56;2.30;99.90
12025;DHT22;6073;53.230;10.444;2023-02-01T06:53:21;2.30;99.90
12025;DHT22;6073;53.230;10.444;2023-02-01T06:55:54;2.30;99.90
12025;DHT22;6073;53.230;10.444;2023-02-01T06:58:20;2.30;99.90
12025;DHT22;6073;53.230;10.444;2023-02-01T07:00:46;2.30;99.90
12025;DHT22;6073;53.230;10.444;2023-02-01T07:03:12;2.40;99.90
12025;DHT22;6073;53.230;10.444;2023-02-01T07:05:37;2.40;99.90
12025;DHT22;6073;53.230;10.444;2023-02-01T07:08:03;2.50;99.90
12025;DHT22;6073;53.230;10.444;2023-02-01T07:10:28;2.60;99.90
12025;DHT22;6073;53.230;10.444;2023-02-01T07:12:57;2.60;99.90
12025;DHT22;6073;53.230;10.444;2023-02-01T07:15:23;2.70;99.90
12025;DHT22;6073;53.230;10.444;2023-02-01T07:17:48;2.70;99.90
12025;DHT22;6073;53.230;10.444;2023-02-01T07:20:15;2.80;99.90
12025;DHT22;6073;53.230;10.444;2023-02-01T07:22:40;2.80;99.90
12025;DHT22;6073;53.230;10.444;2023-02-01T07:25:06;2.80;99.90
12025;DHT22;6073;53.230;10.444;2023-02-01T07:27:35;2.90;99.90
12025;DHT22;6073;53.230;10.444;2023-02-01T07:30:02;2.90;99.90
12025;DHT22;6073;53.230;10.444;2023-02-01T07:32:28;3.00;99.90
12025;DHT22;6073;53.230;10.444;2023-02-01T07:34:54;3.00;99.90
12025;DHT22;6073;53.230;10.444;2023-02-01T07:37:19;3.10;99.90
12025;DHT22;6073;53.230;10.444;2023-02-01T07:39:45;3.20;99.90
12025;DHT22;6073;53.230;10.444;2023-02-01T07:42:11;3.40;99.90
12025;DHT22;6073;53.230;10.444;2023-02-01T07:44:36;3.40;99.90
12025;DHT22;6073;53.230;10.444;2023-02-01T07:47:02;3.50;99.90
12025;DHT22;6073;53.230;10.444;2023-02-01T07:49:28;3.60;99.90
12025;DHT22;6073;53.230;10.444;2023-02-01T07:51:53;3.60;99.90
12025;DHT22;6073;53.230;10.444;2023-02-01T07:54:19;3.70;99.90
12025;DHT22;6073;53.230;10.444;2023-02-01T07:56:44;3.80;99.90
12025;DHT22;6073;53.230;10.444;2023-02-01T07:59:10;3.90;99.90
12025;DHT22;6073;53.230;10.444;2023-02-01T08:01:37;4.00;99.90
12025;DHT22;6073;53.230;10.444;2023-02-01T08:04:03;4.10;99.90
12025;DHT22;6073;53.230;10.444;2023-02-01T08:06:31;4.10;99.90
12025;DHT22;6073;53.230;10.444;2023-02-01T08:08:57;4.10;99.90
12025;DHT22;6073;53.230;10.444;2023-02-01T08:11:24;4.20;99.90
12025;DHT22;6073;53.230;10.444;2023-02-01T08:13:50;4.30;99.90
12025;DHT22;6073;53.230;10.444;2023-02-01T08:16:16;4.40;99.90
12025;DHT22;6073;53.230;10.444;2023-02-01T08:18:43;4.50;99.90
12025;DHT22;6073;53.230;10.444;2023-02-01T08:21:12;4.60;99.90
12025;DHT22;6073;53.230;10.444;2023-02-01T08:23:39;4.70;99.90
12025;DHT22;6073;53.230;10.444;2023-02-01T08:29:09;5.40;99.90
12025;DHT22;6073;53.230;10.444;2023-02-01T08:31:35;5.60;99.90
12025;DHT22;6073;53.230;10.444;2023-02-01T08:34:02;5.60;99.90
12025;DHT22;6073;53.230;10.444;2023-02-01T08:36:30;5.50;99.90
12025;DHT22;6073;53.230;10.444;2023-02-01T08:39:09;5.40;99.90
12025;DHT22;6073;53.230;10.444;2023-02-01T08:41:38;5.40;99.90
12025;DHT22;6073;53.230;10.444;2023-02-01T08:44:05;5.30;99.90
12025;DHT22;6073;53.230;10.444;2023-02-01T08:46:30;5.30;99.90
12025;DHT22;6073;53.230;10.444;2023-02-01T08:48:56;5.30;99.90
12025;DHT22;6073;53.230;10.444;2023-02-01T08:51:22;5.40;99.90
12025;DHT22;6073;53.230;10.444;2023-02-01T08:53:48;5.50;99.90
12025;DHT22;6073;53.230;10.444;2023-02-01T08:56:15;5.50;99.90
12025;DHT22;6073;53.230;10.444;2023-02-01T08:58:42;5.60;99.90
12025;DHT22;6073;53.230;10.444;2023-02-01T09:01:10;5.90;99.90
12025;DHT22;6073;53.230;10.444;2023-02-01T09:03:38;6.10;99.90
12025;DHT22;6073;53.230;10.444;2023-02-01T09:06:07;6.40;99.90
12025;DHT22;6073;53.230;10.444;2023-02-01T09:08:33;6.40;99.90
12025;DHT22;6073;53.230;10.444;2023-02-01T09:11:00;6.30;99.90
12025;DHT22;6073;53.230;10.444;2023-02-01T09:13:26;6.10;99.90
12025;DHT22;6073;53.230;10.444;2023-02-01T09:15:52;6.00;99.90
12025;DHT22;6073;53.230;10.444;2023-02-01T09:18:17;6.00;99.90
12025;DHT22;6073;53.230;10.444;2023-02-01T09:20:43;6.10;99.90
12025;DHT22;6073;53.230;10.444;2023-02-01T09:23:08;6.20;99.90
12025;DHT22;6073;53.230;10.444;2023-02-01T09:25:36;6.10;99.90
12025;DHT22;6073;53.230;10.444;2023-02-01T09:28:01;6.00;99.90
12025;DHT22;6073;53.230;10.444;2023-02-01T09:30:29;6.00;99.90
12025;DHT22;6073;53.230;10.444;2023-02-01T09:35:36;6.00;99.90
12025;DHT22;6073;53.230;10.444;2023-02-01T09:38:01;5.90;99.90
12025;DHT22;6073;53.230;10.444;2023-02-01T09:40:27;6.00;99.90
12025;DHT22;6073;53.230;10.444;2023-02-01T09:43:24;6.10;99.90
12025;DHT22;6073;53.230;10.444;2023-02-01T09:45:58;6.30;99.90
12025;DHT22;6073;53.230;10.444;2023-02-01T09:48:31;6.50;99.90
12025;DHT22;6073;53.230;10.444;2023-02-01T09:50:59;6.60;99.90
12025;DHT22;6073;53.230;10.444;2023-02-01T09:56:15;6.60;99.90
12025;DHT22;6073;53.230;10.444;2023-02-01T09:58:52;6.80;99.90
12025;DHT22;6073;53.230;10.444;2023-02-01T10:01:22;7.00;99.90
12025;DHT22;6073;53.230;10.444;2023-02-01T10:03:49;7.00;99.90
12025;DHT22;6073;53.230;10.444;2023-02-01T10:06:30;7.00;99.90
12025;DHT22;6073;53.230;10.444;2023-02-01T10:11:42;6.80;99.90
12025;DHT22;6073;53.230;10.444;2023-02-01T10:20:36;6.70;99.90
12025;DHT22;6073;53.230;10.444;2023-02-01T10:26:05;6.10;99.90
12025;DHT22;6073;53.230;10.444;2023-02-01T10:28:34;6.10;99.90
12025;DHT22;6073;53.230;10.444;2023-02-01T10:31:02;6.00;99.90
12025;DHT22;6073;53.230;10.444;2023-02-01T10:33:39;6.00;99.90
12025;DHT22;6073;53.230;10.444;2023-02-01T10:36:31;6.00;99.90
12025;DHT22;6073;53.230;10.444;2023-02-01T10:39:02;6.20;99.90
12025;DHT22;6073;53.230;10.444;2023-02-01T10:41:36;6.20;99.90
12025;DHT22;6073;53.230;10.444;2023-02-01T10:44:11;6.10;99.90
12025;DHT22;6073;53.230;10.444;2023-02-01T10:46:38;6.20;99.90
12025;DHT22;6073;53.230;10.444;2023-02-01T10:49:05;6.30;99.90
12025;DHT22;6073;53.230;10.444;2023-02-01T10:52:05;6.30;99.90
12025;DHT22;6073;53.230;10.444;2023-02-01T10:54:38;6.30;99.90
12025;DHT22;6073;53.230;10.444;2023-02-01T10:57:08;6.40;99.90
12025;DHT22;6073;53.230;10.444;2023-02-01T10:59:34;6.40;99.90
12025;DHT22;6073;53.230;10.444;2023-02-01T11:02:15;6.60;99.90
12025;DHT22;6073;53.230;10.444;2023-02-01T11:04:41;6.60;99.90
12025;DHT22;6073;53.230;10.444;2023-02-01T11:07:12;6.70;99.90
12025;DHT22;6073;53.230;10.444;2023-02-01T11:09:40;6.70;99.90
12025;DHT22;6073;53.230;10.444;2023-02-01T11:12:24;6.70;99.90
12025;DHT22;6073;53.230;10.444;2023-02-01T11:14:50;6.70;99.90
12025;DHT22;6073;53.230;10.444;2023-02-01T11:17:26;6.70;99.90
12025;DHT22;6073;53.230;10.444;2023-02-01T11:19:58;6.70;99.90
12025;DHT22;6073;53.230;10.444;2023-02-01T11:22:25;6.70;99.90
12025;DHT22;6073;53.230;10.444;2023-02-01T11:24:53;6.70;99.90
12025;DHT22;6073;53.230;10.444;2023-02-01T11:27:21;6.60;99.90
12025;DHT22;6073;53.230;10.444;2023-02-01T11:29:51;6.60;99.90
12025;DHT22;6073;53.230;10.444;2023-02-01T11:32:18;6.60;99.90
12025;DHT22;6073;53.230;10.444;2023-02-01T11:34:55;6.70;99.90
12025;DHT22;6073;53.230;10.444;2023-02-01T11:37:25;6.70;99.90
12025;DHT22;6073;53.230;10.444;2023-02-01T11:40:00;6.70;99.90
12025;DHT22;6073;53.230;10.444;2023-02-01T11:42:27;6.70;99.90
12025;DHT22;6073;53.230;10.444;2023-02-01T11:45:20;6.60;99.90
12025;DHT22;6073;53.230;10.444;2023-02-01T11:47:52;6.60;99.90
12025;DHT22;6073;53.230;10.444;2023-02-01T11:53:02;6.60;99.90
12025;DHT22;6073;53.230;10.444;2023-02-01T11:55:55;6.50;99.90
12025;DHT22;6073;53.230;10.444;2023-02-01T12:04:00;6.30;99.90
12025;DHT22;6073;53.230;10.444;2023-02-01T12:07:13;6.30;99.90
12025;DHT22;6073;53.230;10.444;2023-02-01T12:12:19;6.20;99.90
12025;DHT22;6073;53.230;10.444;2023-02-01T12:15:19;6.20;99.90
12025;DHT22;6073;53.230;10.444;2023-02-01T12:17:57;6.20;99.90
12025;DHT22;6073;53.230;10.444;2023-02-01T12:23:33;6.20;99.90
12025;DHT22;6073;53.230;10.444;2023-02-01T12:26:42;6.10;99.90
12025;DHT22;6073;53.230;10.444;2023-02-01T12:35:12;5.80;99.90
12025;DHT22;6073;53.230;10.444;2023-02-01T12:38:22;5.60;99.90
12025;DHT22;6073;53.230;10.444;2023-02-01T12:44:01;5.40;99.90
12025;DHT22;6073;53.230;10.444;2023-02-01T12:46:41;5.30;99.90
12025;DHT22;6073;53.230;10.444;2023-02-01T12:49:11;5.00;99.90
12025;DHT22;6073;53.230;10.444;2023-02-01T12:51:43;4.90;99.90
12025;DHT22;6073;53.230;10.444;2023-02-01T12:54:35;4.80;99.90
12025;DHT22;6073;53.230;10.444;2023-02-01T12:57:13;4.70;99.90
12025;DHT22;6073;53.230;10.444;2023-02-01T13:02:36;4.60;99.90
12025;DHT22;6073;53.230;10.444;2023-02-01T13:05:13;4.40;99.90
12025;DHT22;6073;53.230;10.444;2023-02-01T13:07:52;4.40;99.90
12025;DHT22;6073;53.230;10.444;2023-02-01T13:12:59;4.20;99.90
12025;DHT22;6073;53.230;10.444;2023-02-01T13:15:40;4.10;99.90
12025;DHT22;6073;53.230;10.444;2023-02-01T13:18:13;4.00;99.90
12025;DHT22;6073;53.230;10.444;2023-02-01T13:20:47;3.80;99.90
12025;DHT22;6073;53.230;10.444;2023-02-01T13:23:23;3.50;99.90
12025;DHT22;6073;53.230;10.444;2023-02-01T13:25:51;3.50;99.90
12025;DHT22;6073;53.230;10.444;2023-02-01T13:42:03;3.30;99.90
12025;DHT22;6073;53.230;10.444;2023-02-01T13:44:38;3.30;99.90
12025;DHT22;6073;53.230;10.444;2023-02-01T13:47:53;3.40;99.90
12025;DHT22;6073;53.230;10.444;2023-02-01T13:50:30;3.50;99.90
12025;DHT22;6073;53.230;10.444;2023-02-01T13:53:11;3.70;99.90
12025;DHT22;6073;53.230;10.444;2023-02-01T13:55:44;3.80;99.90
12025;DHT22;6073;53.230;10.444;2023-02-01T13:58:21;3.90;99.90
12025;DHT22;6073;53.230;10.444;2023-02-01T14:00:49;4.10;99.90
12025;DHT22;6073;53.230;10.444;2023-02-01T14:03:43;4.10;99.90
12025;DHT22;6073;53.230;10.444;2023-02-01T14:06:39;4.10;99.90
12025;DHT22;6073;53.230;10.444;2023-02-01T14:09:13;4.00;99.90
12025;DHT22;6073;53.230;10.444;2023-02-01T14:11:50;3.90;99.90
12025;DHT22;6073;53.230;10.444;2023-02-01T14:19:32;3.80;99.90
12025;DHT22;6073;53.230;10.444;2023-02-01T14:24:56;3.60;99.90
12025;DHT22;6073;53.230;10.444;2023-02-01T14:27:29;3.60;99.90
12025;DHT22;6073;53.230;10.444;2023-02-01T14:30:06;3.70;99.90
12025;DHT22;6073;53.230;10.444;2023-02-01T14:32:40;3.70;99.90
12025;DHT22;6073;53.230;10.444;2023-02-01T14:35:24;3.80;99.90
12025;DHT22;6073;53.230;10.444;2023-02-01T14:37:53;3.90;99.90
12025;DHT22;6073;53.230;10.444;2023-02-01T14:40:26;3.90;99.90
12025;DHT22;6073;53.230;10.444;2023-02-01T14:42:53;3.90;99.90
12025;DHT22;6073;53.230;10.444;2023-02-01T14:55:26;4.10;99.90
12025;DHT22;6073;53.230;10.444;2023-02-01T14:57:54;4.10;99.90
12025;DHT22;6073;53.230;10.444;2023-02-01T15:00:27;4.10;99.90
12025;DHT22;6073;53.230;10.444;2023-02-01T15:02:56;4.10;99.90
12025;DHT22;6073;53.230;10.444;2023-02-01T15:05:37;4.10;99.90
12025;DHT22;6073;53.230;10.444;2023-02-01T15:08:23;4.20;99.90
12025;DHT22;6073;53.230;10.444;2023-02-01T15:10:51;4.20;99.90
12025;DHT22;6073;53.230;10.444;2023-02-01T15:13:23;4.10;99.90
12025;DHT22;6073;53.230;10.444;2023-02-01T15:16:11;3.90;99.90
12025;DHT22;6073;53.230;10.444;2023-02-01T15:18:38;3.80;99.90
12025;DHT22;6073;53.230;10.444;2023-02-01T15:21:05;3.70;99.90
12025;DHT22;6073;53.230;10.444;2023-02-01T15:23:32;3.70;99.90
12025;DHT22;6073;53.230;10.444;2023-02-01T15:25:58;3.70;99.90
12025;DHT22;6073;53.230;10.444;2023-02-01T15:28:25;3.70;99.90
12025;DHT22;6073;53.230;10.444;2023-02-01T15:30:59;3.70;99.90
12025;DHT22;6073;53.230;10.444;2023-02-01T15:33:26;3.70;99.90
12025;DHT22;6073;53.230;10.444;2023-02-01T15:38:37;3.70;99.90
12025;DHT22;6073;53.230;10.444;2023-02-01T15:41:13;3.70;99.90
12025;DHT22;6073;53.230;10.444;2023-02-01T15:46:36;3.70;99.90
12025;DHT22;6073;53.230;10.444;2023-02-01T15:49:04;3.70;99.90
12025;DHT22;6073;53.230;10.444;2023-02-01T15:51:31;3.70;99.90
12025;DHT22;6073;53.230;10.444;2023-02-01T15:54:03;3.60;99.90
12025;DHT22;6073;53.230;10.444;2023-02-01T15:56:35;3.60;99.90
12025;DHT22;6073;53.230;10.444;2023-02-01T15:59:12;3.60;99.90
12025;DHT22;6073;53.230;10.444;2023-02-01T16:01:39;3.50;99.90
12025;DHT22;6073;53.230;10.444;2023-02-01T16:04:25;3.50;99.90
12025;DHT22;6073;53.230;10.444;2023-02-01T16:06:59;3.50;99.90
12025;DHT22;6073;53.230;10.444;2023-02-01T16:09:53;3.50;99.90
12025;DHT22;6073;53.230;10.444;2023-02-01T16:14:49;3.50;99.90
12025;DHT22;6073;53.230;10.444;2023-02-01T16:17:14;3.40;99.90
12025;DHT22;6073;53.230;10.444;2023-02-01T16:19:40;3.40;99.90
12025;DHT22;6073;53.230;10.444;2023-02-01T16:22:05;3.50;99.90
12025;DHT22;6073;53.230;10.444;2023-02-01T16:24:31;3.50;99.90
12025;DHT22;6073;53.230;10.444;2023-02-01T16:26:58;3.50;99.90
12025;DHT22;6073;53.230;10.444;2023-02-01T16:29:23;3.60;99.90
12025;DHT22;6073;53.230;10.444;2023-02-01T16:31:49;3.60;99.90
12025;DHT22;6073;53.230;10.444;2023-02-01T16:34:16;3.60;99.90
12025;DHT22;6073;53.230;10.444;2023-02-01T16:36:43;3.60;99.90
12025;DHT22;6073;53.230;10.444;2023-02-01T16:39:11;3.60;99.90
12025;DHT22;6073;53.230;10.444;2023-02-01T16:41:38;3.60;99.90
12025;DHT22;6073;53.230;10.444;2023-02-01T16:44:04;3.60;99.90
12025;DHT22;6073;53.230;10.444;2023-02-01T16:46:32;3.70;99.90
12025;DHT22;6073;53.230;10.444;2023-02-01T16:49:00;3.70;99.90
12025;DHT22;6073;53.230;10.444;2023-02-01T16:51:29;3.70;99.90
12025;DHT22;6073;53.230;10.444;2023-02-01T16:53:57;3.80;99.90
12025;DHT22;6073;53.230;10.444;2023-02-01T16:56:30;3.80;99.90
12025;DHT22;6073;53.230;10.444;2023-02-01T16:58:56;3.80;99.90
12025;DHT22;6073;53.230;10.444;2023-02-01T17:01:22;3.80;99.90
12025;DHT22;6073;53.230;10.444;2023-02-01T17:03:48;3.80;99.90
12025;DHT22;6073;53.230;10.444;2023-02-01T17:06:17;3.80;99.90
12025;DHT22;6073;53.230;10.444;2023-02-01T17:08:46;3.80;99.90
12025;DHT22;6073;53.230;10.444;2023-02-01T17:11:13;3.80;99.90
12025;DHT22;6073;53.230;10.444;2023-02-01T17:13:39;3.80;99.90
12025;DHT22;6073;53.230;10.444;2023-02-01T17:16:24;3.80;99.90
12025;DHT22;6073;53.230;10.444;2023-02-01T17:19:06;3.80;99.90
12025;DHT22;6073;53.230;10.444;2023-02-01T17:21:40;3.80;99.90
12025;DHT22;6073;53.230;10.444;2023-02-01T17:24:06;4.00;99.90
12025;DHT22;6073;53.230;10.444;2023-02-01T17:26:31;4.00;99.90
12025;DHT22;6073;53.230;10.444;2023-02-01T17:28:57;4.00;99.90
12025;DHT22;6073;53.230;10.444;2023-02-01T17:31:22;4.00;99.90
12025;DHT22;6073;53.230;10.444;2023-02-01T17:33:48;4.00;99.90
12025;DHT22;6073;53.230;10.444;2023-02-01T17:36:16;4.10;99.90
12025;DHT22;6073;53.230;10.444;2023-02-01T17:38:42;4.20;99.90
12025;DHT22;6073;53.230;10.444;2023-02-01T17:41:13;4.20;99.90
12025;DHT22;6073;53.230;10.444;2023-02-01T17:43:39;4.30;99.90
12025;DHT22;6073;53.230;10.444;2023-02-01T17:48:30;4.30;99.90
12025;DHT22;6073;53.230;10.444;2023-02-01T17:50:56;4.30;99.90
12025;DHT22;6073;53.230;10.444;2023-02-01T17:53:26;4.30;99.90
12025;DHT22;6073;53.230;10.444;2023-02-01T17:55:53;4.40;99.90
12025;DHT22;6073;53.230;10.444;2023-02-01T17:58:19;4.40;99.90
12025;DHT22;6073;53.230;10.444;2023-02-01T18:00:46;4.50;99.90
12025;DHT22;6073;53.230;10.444;2023-02-01T18:03:22;4.40;99.90
12025;DHT22;6073;53.230;10.444;2023-02-01T18:05:50;4.40;99.90